sensor_id;sensor_type;location;lat;lon;timestamp;pressure;altitude;pressure_sealevel;temperature;humidity
37368;BME280;23240;43.210;27.910;2022-10-22T00:01:53;102072.88;;;9.55;100.00
37368;BME280;23240;43.210;27.910;2022-10-22T00:04:19;102070.09;;;9.56;100.00
37368;BME280;23240;43.210;27.910;2022-10-22T00:06:44;102069.78;;;9.62;100.00
37368;BME280;23240;43.210;27.910;2022-10-22T00:09:11;102065.97;;;9.50;100.00
37368;BME280;23240;43.210;27.910;2022-10-22T00:11:37;102058.78;;;9.51;100.00
37368;BME280;23240;43.210;27.910;2022-10-22T00:14:02;102061.22;;;9.40;100.00
37368;BME280;23240;43.210;27.910;2022-10-22T00:16:28;102057.16;;;9.33;100.00
37368;BME280;23240;43.210;27.910;2022-10-22T00:18:53;102057.16;;;9.33;100.00
37368;BME280;23240;43.210;27.910;2022-10-22T00:21:19;102051.78;;;9.33;100.00
37368;BME280;23240;43.210;27.910;2022-10-22T00:23:44;102052.34;;;9.39;100.00
37368;BME280;23240;43.210;27.910;2022-10-22T00:26:10;102038.53;;;9.47;100.00
37368;BME280;23240;43.210;27.910;2022-10-22T00:28:36;102046.47;;;9.48;100.00
37368;BME280;23240;43.210;27.910;2022-10-22T00:31:02;102036.13;;;9.58;100.00
37368;BME280;23240;43.210;27.910;2022-10-22T00:33:29;102031.63;;;9.59;100.00
37368;BME280;23240;43.210;27.910;2022-10-22T00:35:55;102029.22;;;9.54;100.00
37368;BME280;23240;43.210;27.910;2022-10-22T00:38:21;102026.91;;;9.48;100.00
37368;BME280;23240;43.210;27.910;2022-10-22T00:40:46;102022.47;;;9.47;100.00
37368;BME280;23240;43.210;27.910;2022-10-22T00:43:13;102021.53;;;9.48;100.00
37368;BME280;23240;43.210;27.910;2022-10-22T00:45:39;102015.59;;;9.43;100.00
37368;BME280;23240;43.210;27.910;2022-10-22T00:50:40;102011.38;;;9.39;100.00
37368;BME280;23240;43.210;27.910;2022-10-22T00:53:17;102007.13;;;9.35;100.00
37368;BME280;23240;43.210;27.910;2022-10-22T00:55:44;102004.56;;;9.33;100.00
37368;BME280;23240;43.210;27.910;2022-10-22T00:58:11;102000.22;;;9.31;100.00
37368;BME280;23240;43.210;27.910;2022-10-22T01:00:38;102000.22;;;9.31;100.00
37368;BME280;23240;43.210;27.910;2022-10-22T01:03:03;102003.41;;;9.37;100.00
37368;BME280;23240;43.210;27.910;2022-10-22T01:05:32;101999.88;;;9.37;100.00
37368;BME280;23240;43.210;27.910;2022-10-22T01:08:04;101995.31;;;9.39;100.00
37368;BME280;23240;43.210;27.910;2022-10-22T01:11:07;101995.22;;;9.40;100.00
37368;BME280;23240;43.210;27.910;2022-10-22T01:16:57;101995.47;;;9.36;100.00
37368;BME280;23240;43.210;27.910;2022-10-22T01:22:10;101993.66;;;9.52;100.00
37368;BME280;23240;43.210;27.910;2022-10-22T01:24:56;101987.69;;;9.47;100.00
37368;BME280;23240;43.210;27.910;2022-10-22T01:30:07;101982.94;;;9.52;100.00
37368;BME280;23240;43.210;27.910;2022-10-22T01:32:39;101977.19;;;9.44;100.00
37368;BME280;23240;43.210;27.910;2022-10-22T01:35:08;101979.94;;;9.42;100.00
37368;BME280;23240;43.210;27.910;2022-10-22T01:37:51;101977.00;;;9.47;100.00
37368;BME280;23240;43.210;27.910;2022-10-22T01:40:19;101973.41;;;9.48;100.00
37368;BME280;23240;43.210;27.910;2022-10-22T01:42:59;101974.84;;;9.53;100.00
37368;BME280;23240;43.210;27.910;2022-10-22T01:45:26;101970.38;;;9.54;100.00
37368;BME280;23240;43.210;27.910;2022-10-22T01:50:58;101962.50;;;9.51;100.00
37368;BME280;23240;43.210;27.910;2022-10-22T02:00:57;101968.97;;;9.47;100.00
37368;BME280;23240;43.210;27.910;2022-10-22T02:03:28;101971.66;;;9.47;100.00
37368;BME280;23240;43.210;27.910;2022-10-22T02:06:02;101974.31;;;9.47;100.00
37368;BME280;23240;43.210;27.910;2022-10-22T02:08:31;101964.31;;;9.50;100.00
37368;BME280;23240;43.210;27.910;2022-10-22T02:10:58;101974.00;;;9.53;100.00
37368;BME280;23240;43.210;27.910;2022-10-22T02:13:32;101978.56;;;9.51;100.00
37368;BME280;23240;43.210;27.910;2022-10-22T02:15:58;101983.91;;;9.51;100.00
37368;BME280;23240;43.210;27.910;2022-10-22T02:18:28;101987.44;;;9.51;100.00
37368;BME280;23240;43.210;27.910;2022-10-22T02:20:57;101986.50;;;9.52;100.00
37368;BME280;23240;43.210;27.910;2022-10-22T02:23:24;101978.56;;;9.51;100.00
37368;BME280;23240;43.210;27.910;2022-10-22T02:25:57;101976.75;;;9.51;100.00
37368;BME280;23240;43.210;27.910;2022-10-22T02:28:25;101979.34;;;9.53;100.00
37368;BME280;23240;43.210;27.910;2022-10-22T02:30:56;101974.53;;;9.44;100.00
37368;BME280;23240;43.210;27.910;2022-10-22T02:33:30;101984.38;;;9.43;100.00
37368;BME280;23240;43.210;27.910;2022-10-22T02:35:59;101981.59;;;9.45;100.00
37368;BME280;23240;43.210;27.910;2022-10-22T02:38:26;101974.69;;;9.41;100.00
37368;BME280;23240;43.210;27.910;2022-10-22T02:40:52;101976.25;;;9.45;100.00
37368;BME280;23240;43.210;27.910;2022-10-22T02:43:18;101975.38;;;9.44;100.00
37368;BME280;23240;43.210;27.910;2022-10-22T02:45:44;101968.38;;;9.42;100.00
37368;BME280;23240;43.210;27.910;2022-10-22T02:48:10;101970.47;;;9.37;100.00
37368;BME280;23240;43.210;27.910;2022-10-22T02:50:35;101975.66;;;9.40;100.00
37368;BME280;23240;43.210;27.910;2022-10-22T02:53:01;101966.56;;;9.42;100.00
37368;BME280;23240;43.210;27.910;2022-10-22T02:55:27;101965.53;;;9.45;100.00
37368;BME280;23240;43.210;27.910;2022-10-22T02:57:52;101972.88;;;9.41;100.00
37368;BME280;23240;43.210;27.910;2022-10-22T03:00:17;101963.63;;;9.47;100.00
37368;BME280;23240;43.210;27.910;2022-10-22T03:02:43;101959.25;;;9.46;100.00
37368;BME280;23240;43.210;27.910;2022-10-22T03:05:09;101954.00;;;9.44;100.00
37368;BME280;23240;43.210;27.910;2022-10-22T03:07:35;101963.56;;;9.48;100.00
37368;BME280;23240;43.210;27.910;2022-10-22T03:10:00;101965.53;;;9.45;100.00
37368;BME280;23240;43.210;27.910;2022-10-22T03:12:25;101967.47;;;9.43;100.00
37368;BME280;23240;43.210;27.910;2022-10-22T03:14:51;101963.03;;;9.42;100.00
37368;BME280;23240;43.210;27.910;2022-10-22T03:17:17;101955.88;;;9.42;100.00
37368;BME280;23240;43.210;27.910;2022-10-22T03:19:42;101953.13;;;9.44;100.00
37368;BME280;23240;43.210;27.910;2022-10-22T03:22:21;101950.34;;;9.45;100.00
37368;BME280;23240;43.210;27.910;2022-10-22T03:24:49;101956.56;;;9.46;100.00
37368;BME280;23240;43.210;27.910;2022-10-22T03:27:19;101957.41;;;9.46;100.00
37368;BME280;23240;43.210;27.910;2022-10-22T03:29:47;101944.84;;;9.48;100.00
37368;BME280;23240;43.210;27.910;2022-10-22T03:32:13;101942.94;;;9.50;100.00
37368;BME280;23240;43.210;27.910;2022-10-22T03:34:39;101934.81;;;9.52;100.00
37368;BME280;23240;43.210;27.910;2022-10-22T03:37:04;101933.19;;;9.49;100.00
37368;BME280;23240;43.210;27.910;2022-10-22T03:39:32;101933.09;;;9.51;100.00
37368;BME280;23240;43.210;27.910;2022-10-22T03:41:59;101933.09;;;9.51;100.00
37368;BME280;23240;43.210;27.910;2022-10-22T03:44:25;101930.41;;;9.51;100.00
37368;BME280;23240;43.210;27.910;2022-10-22T03:46:52;101936.88;;;9.47;100.00
37368;BME280;23240;43.210;27.910;2022-10-22T03:49:17;101940.72;;;9.43;100.00
37368;BME280;23240;43.210;27.910;2022-10-22T03:51:43;101945.16;;;9.42;100.00
37368;BME280;23240;43.210;27.910;2022-10-22T03:54:08;101939.16;;;9.39;100.00
37368;BME280;23240;43.210;27.910;2022-10-22T03:56:34;101947.34;;;9.36;100.00
37368;BME280;23240;43.210;27.910;2022-10-22T03:59:00;101946.59;;;9.34;100.00
37368;BME280;23240;43.210;27.910;2022-10-22T04:01:28;101940.44;;;9.32;100.00
37368;BME280;23240;43.210;27.910;2022-10-22T04:03:54;101937.19;;;9.26;100.00
37368;BME280;23240;43.210;27.910;2022-10-22T04:06:20;101947.88;;;9.26;100.00
37368;BME280;23240;43.210;27.910;2022-10-22T04:08:46;101945.47;;;9.22;100.00
37368;BME280;23240;43.210;27.910;2022-10-22T04:11:13;101952.63;;;9.21;100.00
37368;BME280;23240;43.210;27.910;2022-10-22T04:13:39;101939.34;;;9.20;100.00
37368;BME280;23240;43.210;27.910;2022-10-22T04:16:13;101936.69;;;9.20;100.00
37368;BME280;23240;43.210;27.910;2022-10-22T04:18:39;101939.59;;;9.15;100.00
37368;BME280;23240;43.210;27.910;2022-10-22T04:21:07;101949.50;;;9.13;100.00
37368;BME280;23240;43.210;27.910;2022-10-22T04:23:33;101945.22;;;9.11;100.00
37368;BME280;23240;43.210;27.910;2022-10-22T04:26:04;101938.16;;;9.10;100.00
37368;BME280;23240;43.210;27.910;2022-10-22T04:28:30;101945.31;;;9.09;100.00
37368;BME280;23240;43.210;27.910;2022-10-22T04:30:55;101940.81;;;9.10;100.00
37368;BME280;23240;43.210;27.910;2022-10-22T04:33:21;101944.34;;;9.10;100.00
37368;BME280;23240;43.210;27.910;2022-10-22T04:35:47;101942.44;;;9.12;100.00
37368;BME280;23240;43.210;27.910;2022-10-22T04:38:12;101941.59;;;9.12;100.00
37368;BME280;23240;43.210;27.910;2022-10-22T04:40:38;101939.72;;;9.14;100.00
37368;BME280;23240;43.210;27.910;2022-10-22T04:43:03;101940.47;;;9.16;100.00
37368;BME280;23240;43.210;27.910;2022-10-22T04:45:29;101945.06;;;9.14;100.00
37368;BME280;23240;43.210;27.910;2022-10-22T04:47:56;101937.78;;;9.16;100.00
37368;BME280;23240;43.210;27.910;2022-10-22T04:50:22;101947.19;;;9.23;100.00
37368;BME280;23240;43.210;27.910;2022-10-22T04:52:47;101939.84;;;9.26;100.00
37368;BME280;23240;43.210;27.910;2022-10-22T04:55:12;101939.31;;;9.36;100.00
37368;BME280;23240;43.210;27.910;2022-10-22T04:57:38;101926.66;;;9.39;100.00
37368;BME280;23240;43.210;27.910;2022-10-22T05:00:04;101926.19;;;9.47;100.00
37368;BME280;23240;43.210;27.910;2022-10-22T05:02:30;101922.13;;;9.56;100.00
37368;BME280;23240;43.210;27.910;2022-10-22T05:04:55;101939.09;;;9.70;100.00
37368;BME280;23240;43.210;27.910;2022-10-22T05:07:21;101934.72;;;9.84;100.00
37368;BME280;23240;43.210;27.910;2022-10-22T05:09:48;101937.44;;;9.98;100.00
37368;BME280;23240;43.210;27.910;2022-10-22T05:12:13;101931.16;;;10.13;100.00
37368;BME280;23240;43.210;27.910;2022-10-22T05:14:39;101932.19;;;10.26;100.00
37368;BME280;23240;43.210;27.910;2022-10-22T05:17:04;101926.72;;;10.42;100.00
37368;BME280;23240;43.210;27.910;2022-10-22T05:19:30;101925.88;;;10.56;100.00
37368;BME280;23240;43.210;27.910;2022-10-22T05:21:58;101922.22;;;10.71;100.00
37368;BME280;23240;43.210;27.910;2022-10-22T05:24:25;101914.16;;;10.86;100.00
37368;BME280;23240;43.210;27.910;2022-10-22T05:26:55;101919.50;;;11.00;100.00
37368;BME280;23240;43.210;27.910;2022-10-22T05:29:21;101924.63;;;11.17;100.00
37368;BME280;23240;43.210;27.910;2022-10-22T05:31:47;101926.63;;;11.41;100.00
37368;BME280;23240;43.210;27.910;2022-10-22T05:34:13;101934.00;;;11.64;100.00
37368;BME280;23240;43.210;27.910;2022-10-22T05:36:39;101941.63;;;11.85;100.00
37368;BME280;23240;43.210;27.910;2022-10-22T05:39:05;101940.78;;;11.97;98.74
37368;BME280;23240;43.210;27.910;2022-10-22T05:41:31;101940.38;;;12.16;96.90
37368;BME280;23240;43.210;27.910;2022-10-22T05:43:58;101938.00;;;12.37;93.66
37368;BME280;23240;43.210;27.910;2022-10-22T05:46:26;101933.84;;;12.58;92.57
37368;BME280;23240;43.210;27.910;2022-10-22T05:48:57;101937.56;;;12.68;87.88
37368;BME280;23240;43.210;27.910;2022-10-22T05:51:25;101940.22;;;12.81;84.42
37368;BME280;23240;43.210;27.910;2022-10-22T05:53:52;101937.06;;;13.00;82.20
37368;BME280;23240;43.210;27.910;2022-10-22T05:56:18;101932.50;;;13.13;77.91
37368;BME280;23240;43.210;27.910;2022-10-22T05:58:45;101929.38;;;13.19;77.39
37368;BME280;23240;43.210;27.910;2022-10-22T06:01:16;101935.97;;;13.15;77.64
37368;BME280;23240;43.210;27.910;2022-10-22T06:03:42;101927.47;;;13.08;75.72
37368;BME280;23240;43.210;27.910;2022-10-22T06:08:43;101924.44;;;13.13;74.74
37368;BME280;23240;43.210;27.910;2022-10-22T06:11:09;101921.53;;;13.16;75.12
37368;BME280;23240;43.210;27.910;2022-10-22T06:13:34;101916.38;;;13.13;75.23
37368;BME280;23240;43.210;27.910;2022-10-22T06:16:00;101920.69;;;13.16;73.51
37368;BME280;23240;43.210;27.910;2022-10-22T06:18:25;101913.34;;;13.18;72.53
37368;BME280;23240;43.210;27.910;2022-10-22T06:20:50;101908.81;;;13.18;71.52
37368;BME280;23240;43.210;27.910;2022-10-22T06:23:16;101911.72;;;13.28;70.07
37368;BME280;23240;43.210;27.910;2022-10-22T06:25:42;101915.38;;;13.27;68.80
37368;BME280;23240;43.210;27.910;2022-10-22T06:28:08;101924.63;;;13.35;66.33
37368;BME280;23240;43.210;27.910;2022-10-22T06:30:33;101920.00;;;13.49;65.77
37368;BME280;23240;43.210;27.910;2022-10-22T06:32:59;101915.69;;;13.59;65.03
37368;BME280;23240;43.210;27.910;2022-10-22T06:35:24;101923.50;;;13.62;64.76
37368;BME280;23240;43.210;27.910;2022-10-22T06:37:50;101920.72;;;13.63;64.36
37368;BME280;23240;43.210;27.910;2022-10-22T06:40:15;101925.88;;;13.78;63.93
37368;BME280;23240;43.210;27.910;2022-10-22T06:42:42;101931.22;;;14.02;63.40
37368;BME280;23240;43.210;27.910;2022-10-22T06:45:08;101921.09;;;14.17;61.89
37368;BME280;23240;43.210;27.910;2022-10-22T06:47:34;101915.72;;;14.28;60.78
37368;BME280;23240;43.210;27.910;2022-10-22T06:50:00;101915.22;;;14.45;60.56
37368;BME280;23240;43.210;27.910;2022-10-22T06:52:25;101913.44;;;14.57;60.08
37368;BME280;23240;43.210;27.910;2022-10-22T06:54:50;101910.00;;;14.77;58.95
37368;BME280;23240;43.210;27.910;2022-10-22T06:57:16;101913.06;;;14.84;58.13
37368;BME280;23240;43.210;27.910;2022-10-22T06:59:41;101910.84;;;14.89;58.01
37368;BME280;23240;43.210;27.910;2022-10-22T07:02:08;101908.47;;;15.07;57.72
37368;BME280;23240;43.210;27.910;2022-10-22T07:04:35;101909.94;;;15.11;56.67
37368;BME280;23240;43.210;27.910;2022-10-22T07:07:00;101903.03;;;15.29;55.76
37368;BME280;23240;43.210;27.910;2022-10-22T07:09:26;101896.56;;;15.53;55.57
37368;BME280;23240;43.210;27.910;2022-10-22T07:11:51;101894.44;;;15.56;54.35
37368;BME280;23240;43.210;27.910;2022-10-22T07:14:17;101895.06;;;15.60;54.04
37368;BME280;23240;43.210;27.910;2022-10-22T07:16:42;101895.91;;;15.60;53.79
37368;BME280;23240;43.210;27.910;2022-10-22T07:19:10;101893.59;;;15.67;52.72
37368;BME280;23240;43.210;27.910;2022-10-22T07:21:35;101885.56;;;15.77;53.16
37368;BME280;23240;43.210;27.910;2022-10-22T07:24:01;101889.22;;;15.76;52.50
37368;BME280;23240;43.210;27.910;2022-10-22T07:26:27;101897.34;;;15.97;51.78
37368;BME280;23240;43.210;27.910;2022-10-22T07:28:55;101895.28;;;16.10;51.42
37368;BME280;23240;43.210;27.910;2022-10-22T07:31:20;101888.06;;;16.10;50.94
37368;BME280;23240;43.210;27.910;2022-10-22T07:33:46;101872.81;;;16.09;50.42
37368;BME280;23240;43.210;27.910;2022-10-22T07:36:14;101884.19;;;16.34;50.59
37368;BME280;23240;43.210;27.910;2022-10-22T07:38:46;101886.03;;;16.64;49.66
37368;BME280;23240;43.210;27.910;2022-10-22T07:41:13;101874.00;;;16.87;48.92
37368;BME280;23240;43.210;27.910;2022-10-22T07:43:39;101882.28;;;16.86;48.01
37368;BME280;23240;43.210;27.910;2022-10-22T07:46:05;101874.94;;;17.07;47.88
37368;BME280;23240;43.210;27.910;2022-10-22T07:48:32;101877.31;;;17.01;47.41
37368;BME280;23240;43.210;27.910;2022-10-22T07:50:58;101870.50;;;17.16;47.45
37368;BME280;23240;43.210;27.910;2022-10-22T07:53:23;101860.41;;;17.57;46.64
37368;BME280;23240;43.210;27.910;2022-10-22T07:55:50;101864.38;;;17.72;45.89
37368;BME280;23240;43.210;27.910;2022-10-22T07:58:17;101865.50;;;17.98;45.58
37368;BME280;23240;43.210;27.910;2022-10-22T08:00:43;101871.22;;;17.95;45.56
37368;BME280;23240;43.210;27.910;2022-10-22T08:03:10;101865.63;;;18.07;45.18
37368;BME280;23240;43.210;27.910;2022-10-22T08:05:36;101867.16;;;18.29;44.80
37368;BME280;23240;43.210;27.910;2022-10-22T08:08:04;101866.41;;;17.70;45.11
37368;BME280;23240;43.210;27.910;2022-10-22T08:10:30;101871.09;;;17.87;45.49
37368;BME280;23240;43.210;27.910;2022-10-22T08:12:56;101862.06;;;18.06;45.04
37368;BME280;23240;43.210;27.910;2022-10-22T08:15:21;101858.41;;;17.39;46.01
37368;BME280;23240;43.210;27.910;2022-10-22T08:17:50;101862.69;;;17.13;47.24
37368;BME280;23240;43.210;27.910;2022-10-22T08:20:15;101859.41;;;17.29;46.99
37368;BME280;23240;43.210;27.910;2022-10-22T08:22:41;101856.00;;;17.46;46.55
37368;BME280;23240;43.210;27.910;2022-10-22T08:25:06;101856.53;;;17.69;46.12
37368;BME280;23240;43.210;27.910;2022-10-22T08:27:32;101856.25;;;17.14;47.03
37368;BME280;23240;43.210;27.910;2022-10-22T08:29:58;101852.81;;;16.92;47.55
37368;BME280;23240;43.210;27.910;2022-10-22T08:32:23;101846.41;;;16.93;48.08
37368;BME280;23240;43.210;27.910;2022-10-22T08:34:49;101844.28;;;16.97;48.18
37368;BME280;23240;43.210;27.910;2022-10-22T08:37:14;101836.28;;;16.95;47.69
37368;BME280;23240;43.210;27.910;2022-10-22T08:39:41;101829.03;;;17.06;47.40
37368;BME280;23240;43.210;27.910;2022-10-22T08:45:19;101827.50;;;17.23;46.12
37368;BME280;23240;43.210;27.910;2022-10-22T08:50:47;101815.94;;;17.20;45.70
37368;BME280;23240;43.210;27.910;2022-10-22T08:53:17;101808.13;;;17.27;45.81
37368;BME280;23240;43.210;27.910;2022-10-22T08:55:44;101813.81;;;17.24;45.77
37368;BME280;23240;43.210;27.910;2022-10-22T08:58:17;101807.69;;;17.32;45.48
37368;BME280;23240;43.210;27.910;2022-10-22T09:03:43;101821.50;;;17.48;45.15
37368;BME280;23240;43.210;27.910;2022-10-22T09:06:16;101816.34;;;17.55;45.48
37368;BME280;23240;43.210;27.910;2022-10-22T09:08:44;101807.66;;;17.61;45.16
37368;BME280;23240;43.210;27.910;2022-10-22T09:11:25;101804.06;;;17.70;44.88
37368;BME280;23240;43.210;27.910;2022-10-22T09:13:51;101797.63;;;17.90;45.02
37368;BME280;23240;43.210;27.910;2022-10-22T09:16:42;101800.56;;;18.07;44.24
37368;BME280;23240;43.210;27.910;2022-10-22T09:19:33;101791.50;;;18.26;43.95
37368;BME280;23240;43.210;27.910;2022-10-22T09:27:05;101787.16;;;18.42;43.55
37368;BME280;23240;43.210;27.910;2022-10-22T09:29:34;101784.97;;;18.46;43.36
37368;BME280;23240;43.210;27.910;2022-10-22T09:32:00;101776.00;;;18.63;42.52
37368;BME280;23240;43.210;27.910;2022-10-22T09:34:27;101768.38;;;18.94;42.26
37368;BME280;23240;43.210;27.910;2022-10-22T09:36:57;101764.09;;;19.27;41.82
37368;BME280;23240;43.210;27.910;2022-10-22T09:39:31;101757.53;;;19.56;40.72
37368;BME280;23240;43.210;27.910;2022-10-22T09:41:56;101760.47;;;19.63;40.33
37368;BME280;23240;43.210;27.910;2022-10-22T09:44:22;101771.09;;;19.74;40.25
37368;BME280;23240;43.210;27.910;2022-10-22T09:46:47;101756.91;;;19.62;40.29
37368;BME280;23240;43.210;27.910;2022-10-22T09:49:18;101763.19;;;19.63;40.29
37368;BME280;23240;43.210;27.910;2022-10-22T09:51:57;101764.59;;;19.67;40.44
37368;BME280;23240;43.210;27.910;2022-10-22T09:54:40;101764.09;;;19.63;40.19
37368;BME280;23240;43.210;27.910;2022-10-22T09:57:13;101752.88;;;19.66;39.89
37368;BME280;23240;43.210;27.910;2022-10-22T09:59:42;101754.38;;;19.61;40.02
37368;BME280;23240;43.210;27.910;2022-10-22T10:04:54;101734.31;;;19.62;39.94
37368;BME280;23240;43.210;27.910;2022-10-22T10:09:47;101725.22;;;19.53;40.15
37368;BME280;23240;43.210;27.910;2022-10-22T10:17:53;101734.44;;;19.78;40.04
37368;BME280;23240;43.210;27.910;2022-10-22T10:23:20;101730.69;;;19.79;40.06
37368;BME280;23240;43.210;27.910;2022-10-22T10:26:14;101729.06;;;19.94;39.60
37368;BME280;23240;43.210;27.910;2022-10-22T10:52:56;101678.97;;;19.19;60.10
37368;BME280;23240;43.210;27.910;2022-10-22T10:55:44;101663.88;;;19.16;61.03
37368;BME280;23240;43.210;27.910;2022-10-22T10:58:21;101663.31;;;19.13;63.02
37368;BME280;23240;43.210;27.910;2022-10-22T11:04:59;101649.44;;;19.16;65.23
37368;BME280;23240;43.210;27.910;2022-10-22T11:07:07;101646.44;;;19.01;65.19
37368;BME280;23240;43.210;27.910;2022-10-22T11:09:44;101642.16;;;18.98;65.77
37368;BME280;23240;43.210;27.910;2022-10-22T11:12:18;101631.84;;;19.02;66.76
37368;BME280;23240;43.210;27.910;2022-10-22T11:17:44;101625.09;;;19.06;66.21
37368;BME280;23240;43.210;27.910;2022-10-22T11:23:18;101629.78;;;19.22;64.99
37368;BME280;23240;43.210;27.910;2022-10-22T11:25:48;101621.06;;;19.10;64.94
37368;BME280;23240;43.210;27.910;2022-10-22T11:28:16;101622.75;;;19.11;64.66
37368;BME280;23240;43.210;27.910;2022-10-22T11:30:47;101615.41;;;19.30;65.06
37368;BME280;23240;43.210;27.910;2022-10-22T11:33:20;101607.19;;;19.21;62.82
37368;BME280;23240;43.210;27.910;2022-10-22T11:35:49;101608.09;;;19.04;63.59
37368;BME280;23240;43.210;27.910;2022-10-22T11:38:21;101595.94;;;18.90;64.91
37368;BME280;23240;43.210;27.910;2022-10-22T11:40:58;101602.09;;;18.92;65.53
37368;BME280;23240;43.210;27.910;2022-10-22T11:49:00;101586.84;;;18.73;67.76
37368;BME280;23240;43.210;27.910;2022-10-22T11:51:35;101579.19;;;18.69;66.93
37368;BME280;23240;43.210;27.910;2022-10-22T11:54:28;101582.13;;;18.58;67.58
37368;BME280;23240;43.210;27.910;2022-10-22T11:57:16;101579.06;;;18.61;68.64
37368;BME280;23240;43.210;27.910;2022-10-22T12:02:33;101560.03;;;18.53;69.17
37368;BME280;23240;43.210;27.910;2022-10-22T12:10:20;101561.44;;;18.39;74.05
37368;BME280;23240;43.210;27.910;2022-10-22T12:12:55;101560.25;;;18.41;75.00
37368;BME280;23240;43.210;27.910;2022-10-22T12:15:23;101561.91;;;18.52;74.62
37368;BME280;23240;43.210;27.910;2022-10-22T12:17:50;101564.16;;;18.57;74.30
37368;BME280;23240;43.210;27.910;2022-10-22T12:20:24;101553.50;;;18.63;73.53
37368;BME280;23240;43.210;27.910;2022-10-22T12:22:51;101550.00;;;18.71;71.55
37368;BME280;23240;43.210;27.910;2022-10-22T12:25:21;101559.47;;;18.67;70.94
37368;BME280;23240;43.210;27.910;2022-10-22T12:27:52;101549.16;;;18.70;71.58
37368;BME280;23240;43.210;27.910;2022-10-22T12:30:24;101547.38;;;18.79;70.65
37368;BME280;23240;43.210;27.910;2022-10-22T12:32:54;101549.41;;;18.77;69.54
37368;BME280;23240;43.210;27.910;2022-10-22T12:35:25;101539.28;;;18.87;69.42
37368;BME280;23240;43.210;27.910;2022-10-22T12:37:54;101541.03;;;18.96;68.40
37368;BME280;23240;43.210;27.910;2022-10-22T12:40:25;101533.38;;;18.92;67.42
37368;BME280;23240;43.210;27.910;2022-10-22T12:42:56;101535.84;;;18.77;68.09
37368;BME280;23240;43.210;27.910;2022-10-22T12:45:26;101536.84;;;18.76;68.55
37368;BME280;23240;43.210;27.910;2022-10-22T12:47:56;101531.72;;;18.73;69.29
37368;BME280;23240;43.210;27.910;2022-10-22T12:50:30;101534.59;;;18.71;70.45
37368;BME280;23240;43.210;27.910;2022-10-22T12:52:57;101533.91;;;18.69;70.96
37368;BME280;23240;43.210;27.910;2022-10-22T12:55:24;101528.22;;;18.63;71.63
37368;BME280;23240;43.210;27.910;2022-10-22T12:57:50;101530.03;;;18.54;72.08
37368;BME280;23240;43.210;27.910;2022-10-22T13:00:24;101531.50;;;18.48;72.74
37368;BME280;23240;43.210;27.910;2022-10-22T13:02:51;101535.00;;;18.41;73.03
37368;BME280;23240;43.210;27.910;2022-10-22T13:05:30;101533.09;;;18.33;73.38
37368;BME280;23240;43.210;27.910;2022-10-22T13:08:17;101522.38;;;18.32;72.86
37368;BME280;23240;43.210;27.910;2022-10-22T13:10:52;101525.25;;;18.30;72.66
37368;BME280;23240;43.210;27.910;2022-10-22T13:13:42;101522.16;;;18.25;72.25
37368;BME280;23240;43.210;27.910;2022-10-22T13:16:24;101524.78;;;18.17;71.57
37368;BME280;23240;43.210;27.910;2022-10-22T13:18:52;101510.47;;;18.07;72.18
37368;BME280;23240;43.210;27.910;2022-10-22T13:21:37;101505.97;;;17.97;73.45
37368;BME280;23240;43.210;27.910;2022-10-22T13:24:20;101513.66;;;17.84;75.19
37368;BME280;23240;43.210;27.910;2022-10-22T13:26:52;101510.13;;;17.74;75.78
37368;BME280;23240;43.210;27.910;2022-10-22T13:29:19;101514.34;;;17.86;74.95
37368;BME280;23240;43.210;27.910;2022-10-22T13:31:51;101508.53;;;17.81;75.15
37368;BME280;23240;43.210;27.910;2022-10-22T13:34:19;101518.66;;;17.79;76.03
37368;BME280;23240;43.210;27.910;2022-10-22T13:36:47;101504.28;;;17.69;77.13
37368;BME280;23240;43.210;27.910;2022-10-22T13:39:22;101506.31;;;17.67;77.95
37368;BME280;23240;43.210;27.910;2022-10-22T13:41:48;101506.22;;;17.59;77.99
37368;BME280;23240;43.210;27.910;2022-10-22T13:44:15;101508.84;;;17.51;78.50
37368;BME280;23240;43.210;27.910;2022-10-22T13:46:41;101511.25;;;17.54;79.12
37368;BME280;23240;43.210;27.910;2022-10-22T13:49:15;101514.72;;;17.46;79.88
37368;BME280;23240;43.210;27.910;2022-10-22T13:51:42;101518.97;;;17.48;80.59
37368;BME280;23240;43.210;27.910;2022-10-22T13:54:16;101513.25;;;17.52;81.15
37368;BME280;23240;43.210;27.910;2022-10-22T13:56:43;101503.44;;;17.51;82.34
37368;BME280;23240;43.210;27.910;2022-10-22T13:59:09;101495.31;;;17.51;82.75
37368;BME280;23240;43.210;27.910;2022-10-22T14:01:35;101489.50;;;17.45;83.93
37368;BME280;23240;43.210;27.910;2022-10-22T14:04:03;101493.06;;;17.46;85.17
37368;BME280;23240;43.210;27.910;2022-10-22T14:06:30;101486.53;;;17.39;87.06
37368;BME280;23240;43.210;27.910;2022-10-22T14:08:59;101476.72;;;17.38;87.82
37368;BME280;23240;43.210;27.910;2022-10-22T14:11:26;101473.44;;;17.34;89.31
37368;BME280;23240;43.210;27.910;2022-10-22T14:13:53;101472.59;;;17.34;90.50
37368;BME280;23240;43.210;27.910;2022-10-22T14:16:23;101468.34;;;17.31;92.42
37368;BME280;23240;43.210;27.910;2022-10-22T14:18:49;101466.31;;;17.33;93.11
37368;BME280;23240;43.210;27.910;2022-10-22T14:21:16;101464.75;;;17.31;93.74
37368;BME280;23240;43.210;27.910;2022-10-22T14:23:44;101462.22;;;17.29;94.08
37368;BME280;23240;43.210;27.910;2022-10-22T14:26:24;101466.50;;;17.32;94.00
37368;BME280;23240;43.210;27.910;2022-10-22T14:28:52;101463.78;;;17.32;93.96